Time;durP1;ratioP1;P1;durP2;ratioP2;P2;SDS_P1;SDS_P2;PMS_P1;PMS_P2;Temp;Humidity;BMP_temperature;BMP_pressure;BME280_temperature;BME280_humidity;BME280_pressure;Samples;Min_cycle;Max_cycle;Signal;HPM_P1;HPM_P2
2022/09/22 00:00:38;;;;;;;5.90;2.35;;;7.90;67.30;;;;;;4172517;28;20052;-84
2022/09/22 00:02:40;;;;;;;4.40;1.90;;;7.80;67.30;;;;;;4190067;28;20068;-84
2022/09/22 00:04:40;;;;;;;3.58;1.83;;;7.80;67.40;;;;;;4192670;28;20012;-85
2022/09/22 00:06:46;;;;;;;3.55;2.20;;;7.80;67.30;;;;;;4186181;28;20035;-84
2022/09/22 00:08:50;;;;;;;7.13;1.92;;;7.80;67.30;;;;;;4210467;28;20407;-84
2022/09/22 00:11:12;;;;;;;3.42;2.03;;;7.80;67.30;;;;;;4189915;28;20163;-85
2022/09/22 00:13:13;;;;;;;4.72;1.98;;;7.70;67.40;;;;;;4183154;28;20134;-85
2022/09/22 00:15:15;;;;;;;5.13;2.10;;;7.70;67.40;;;;;;4189536;28;20028;-84
2022/09/22 00:17:15;;;;;;;6.00;2.00;;;7.70;67.40;;;;;;4192516;28;20029;-84
2022/09/22 00:19:22;;;;;;;4.28;2.28;;;7.70;67.50;;;;;;4174388;28;20569;-85
2022/09/22 00:21:26;;;;;;;3.03;1.88;;;7.70;67.50;;;;;;4205514;28;20035;-85
2022/09/22 00:23:27;;;;;;;7.45;2.45;;;7.60;67.50;;;;;;4192363;28;20024;-85
2022/09/22 00:25:28;;;;;;;4.32;2.17;;;7.60;67.50;;;;;;4193086;28;20100;-85
2022/09/22 00:27:29;;;;;;;3.55;1.88;;;7.60;67.50;;;;;;4190570;28;20547;-85
2022/09/22 00:29:29;;;;;;;4.22;2.22;;;7.60;67.50;;;;;;4193926;28;20029;-85
2022/09/22 00:31:30;;;;;;;4.68;1.98;;;7.60;67.50;;;;;;4185965;28;20166;-85
2022/09/22 00:33:31;;;;;;;6.07;2.20;;;7.50;67.40;;;;;;4189981;28;20246;-85
2022/09/22 00:35:32;;;;;;;3.22;2.00;;;7.50;67.50;;;;;;4191872;28;20484;-85
2022/09/22 00:37:32;;;;;;;4.18;1.80;;;7.50;67.50;;;;;;4195918;28;20086;-84
2022/09/22 00:39:34;;;;;;;3.63;2.30;;;7.50;67.60;;;;;;4192441;28;20020;-85
2022/09/22 00:41:39;;;;;;;3.10;1.92;;;7.40;67.60;;;;;;4195210;28;20028;-85
2022/09/22 00:43:40;;;;;;;3.95;2.30;;;7.40;67.60;;;;;;4191490;28;20028;-84
2022/09/22 00:45:41;;;;;;;2.42;1.90;;;7.40;67.80;;;;;;4193895;28;20158;-84
2022/09/22 00:47:45;;;;;;;7.28;2.42;;;7.50;67.90;;;;;;4196748;28;20027;-84
2022/09/22 00:49:51;;;;;;;3.47;2.20;;;7.40;67.90;;;;;;4195407;28;20078;-84
2022/09/22 00:51:52;;;;;;;5.78;2.00;;;7.30;67.80;;;;;;4193013;28;20113;-84
2022/09/22 00:53:54;;;;;;;3.40;2.15;;;7.30;67.80;;;;;;4196099;28;20471;-84
2022/09/22 00:56:08;;;;;;;4.38;2.30;;;7.30;67.90;;;;;;4189604;28;20040;-85
2022/09/22 00:58:12;;;;;;;;;;;7.30;67.90;;;;;;4211385;28;20086;-84
2022/09/22 01:00:13;;;;;;;2.90;1.90;;;7.30;68.50;;;;;;4195053;28;20291;-84
2022/09/22 01:02:14;;;;;;;5.25;2.30;;;7.20;67.70;;;;;;4196298;28;20078;-85
2022/09/22 01:04:16;;;;;;;2.35;1.90;;;7.20;67.80;;;;;;4194608;28;20495;-84
2022/09/22 01:06:20;;;;;;;4.78;2.25;;;7.20;67.80;;;;;;4194432;28;20021;-85
2022/09/22 01:08:23;;;;;;;5.90;2.38;;;7.20;68.00;;;;;;4195728;28;20461;-84
2022/09/22 01:10:25;;;;;;;4.95;2.00;;;7.30;68.00;;;;;;4194057;28;20028;-84
2022/09/22 01:12:28;;;;;;;4.07;2.08;;;7.20;68.10;;;;;;4196317;28;20021;-84
2022/09/22 01:15:02;;;;;;;8.30;2.00;;;7.10;68.10;;;;;;4195691;28;20036;-84
2022/09/22 01:17:16;;;;;;;2.92;1.90;;;7.10;69.10;;;;;;4195073;28;20025;-85
2022/09/22 01:19:17;;;;;;;;;;;7.10;68.10;;;;;;4191897;28;20107;-85
2022/09/22 01:21:20;;;;;;;4.75;1.98;;;7.10;68.80;;;;;;4207472;28;19912;-84
2022/09/22 01:23:38;;;;;;;3.55;1.80;;;7.10;68.00;;;;;;4191480;28;20044;-84
2022/09/22 01:26:00;;;;;;;5.18;1.88;;;7.00;68.00;;;;;;4193169;28;20099;-84
2022/09/22 01:28:22;;;;;;;3.25;1.65;;;7.00;68.00;;;;;;4192037;28;20397;-84
2022/09/22 01:30:35;;;;;;;5.30;2.15;;;7.00;68.10;;;;;;4188470;28;20040;-84
2022/09/22 01:32:55;;;;;;;4.82;1.98;;;7.00;68.10;;;;;;4193916;28;20028;-85
2022/09/22 01:35:12;;;;;;;5.00;1.90;;;6.90;68.00;;;;;;4194335;28;20035;-84
2022/09/22 01:37:44;;;;;;;3.28;1.90;;;6.90;68.10;;;;;;4193495;28;20116;-84
2022/09/22 01:39:53;;;;;;;3.72;1.90;;;6.90;68.30;;;;;;4194934;28;20020;-84
2022/09/22 01:42:18;;;;;;;4.57;1.98;;;6.90;68.10;;;;;;4193274;28;20047;-84
2022/09/22 01:44:46;;;;;;;3.13;1.83;;;6.90;68.20;;;;;;4194557;28;20112;-84
2022/09/22 01:46:54;;;;;;;4.28;1.60;;;6.80;68.20;;;;;;4208814;28;20489;-84
2022/09/22 01:48:59;;;;;;;3.05;2.00;;;6.80;68.10;;;;;;4212123;28;20012;-84
2022/09/22 01:51:07;;;;;;;3.22;1.90;;;6.70;68.10;;;;;;4190926;28;20029;-84
2022/09/22 01:53:13;;;;;;;5.82;1.77;;;6.70;68.10;;;;;;4196978;28;20028;-84
2022/09/22 01:55:21;;;;;;;5.95;2.20;;;6.70;68.30;;;;;;4189919;28;20174;-84
2022/09/22 01:57:36;;;;;;;4.55;1.98;;;6.70;68.30;;;;;;4211798;28;20094;-85
2022/09/22 01:59:41;;;;;;;5.03;2.08;;;6.70;68.20;;;;;;4194543;28;20031;-84
2022/09/22 02:01:49;;;;;;;2.67;1.80;;;6.70;68.20;;;;;;4195682;28;20029;-85
2022/09/22 02:04:05;;;;;;;2.55;1.90;;;6.70;68.30;;;;;;4195426;28;20035;-84
2022/09/22 02:06:38;;;;;;;2.97;1.80;;;6.60;68.20;;;;;;4192717;28;20532;-84
2022/09/22 02:09:12;;;;;;;3.38;2.00;;;6.60;68.50;;;;;;4182593;28;20044;-84
2022/09/22 02:11:15;;;;;;;4.25;1.85;;;6.60;68.20;;;;;;4174198;28;20033;-85
2022/09/22 02:13:15;;;;;;;4.25;2.13;;;6.60;68.30;;;;;;4213091;28;20042;-84
2022/09/22 02:17:37;;;;;;;6.82;1.95;;;6.60;68.40;;;;;;4195336;28;20960;-84
2022/09/22 02:19:40;;;;;;;2.83;1.90;;;6.50;68.30;;;;;;4199979;28;20475;-84
2022/09/22 02:21:44;;;;;;;3.25;1.70;;;6.50;68.40;;;;;;4195153;28;20024;-83
2022/09/22 02:23:46;;;;;;;3.65;2.42;;;6.50;68.40;;;;;;4193349;28;20140;-84
2022/09/22 02:25:48;;;;;;;4.82;2.15;;;6.40;68.30;;;;;;4193000;28;20025;-84
2022/09/22 02:27:52;;;;;;;5.47;2.10;;;6.40;68.30;;;;;;4193850;28;20017;-84
2022/09/22 02:29:57;;;;;;;;;;;6.50;68.30;;;;;;4197475;28;20275;-84
2022/09/22 02:32:01;;;;;;;3.47;1.80;;;6.40;68.90;;;;;;4201563;28;19920;-85
2022/09/22 02:34:03;;;;;;;4.90;1.50;;;6.40;68.20;;;;;;4201939;28;20102;-84
2022/09/22 02:36:38;;;;;;;3.13;1.75;;;6.40;68.30;;;;;;4201265;28;20036;-84
2022/09/22 02:39:08;;;;;;;2.88;2.03;;;6.30;68.40;;;;;;4199606;28;20020;-84
2022/09/22 02:41:26;;;;;;;2.83;1.70;;;6.30;68.30;;;;;;4199401;28;20028;-84
2022/09/22 02:43:42;;;;;;;3.63;2.28;;;6.30;68.50;;;;;;4215123;28;20082;-83
2022/09/22 02:45:58;;;;;;;4.47;2.30;;;6.30;69.20;;;;;;4197929;28;20051;-83
2022/09/22 02:48:09;;;;;;;6.50;1.85;;;6.20;68.50;;;;;;4198081;28;20037;-83
2022/09/22 02:50:12;;;;;;;8.23;2.45;;;6.30;68.60;;;;;;4201697;28;20052;-83
2022/09/22 02:52:13;;;;;;;7.43;2.05;;;6.20;68.60;;;;;;4193709;28;20107;-83
2022/09/22 02:54:14;;;;;;;3.17;2.17;;;6.20;68.70;;;;;;4193927;28;20507;-83
2022/09/22 02:56:15;;;;;;;4.65;2.17;;;6.20;68.70;;;;;;4208198;28;20746;-84
2022/09/22 02:58:16;;;;;;;6.03;2.50;;;6.10;68.60;;;;;;4192949;28;20509;-83
2022/09/22 03:00:17;;;;;;;4.80;2.03;;;6.20;68.70;;;;;;4193003;28;20091;-84
2022/09/22 03:02:17;;;;;;;2.75;1.95;;;6.10;68.70;;;;;;4191667;28;20028;-84
2022/09/22 03:04:18;;;;;;;4.68;2.42;;;6.10;68.80;;;;;;4194514;28;20495;-84
2022/09/22 03:06:18;;;;;;;6.57;2.60;;;6.10;68.90;;;;;;4188668;28;20036;-83
2022/09/22 03:08:19;;;;;;;6.65;2.55;;;6.10;69.00;;;;;;4188075;28;20484;-82
2022/09/22 03:10:20;;;;;;;2.83;2.03;;;6.10;69.00;;;;;;4191618;28;20035;-82
2022/09/22 03:12:21;;;;;;;5.25;2.40;;;6.00;69.00;;;;;;4190669;28;20488;-81
2022/09/22 03:14:21;;;;;;;3.30;2.10;;;6.00;69.00;;;;;;4193658;28;20384;-81
2022/09/22 03:16:22;;;;;;;3.00;2.17;;;6.00;69.10;;;;;;4190777;28;20389;-81
2022/09/22 03:18:22;;;;;;;4.72;2.25;;;6.00;69.10;;;;;;4193422;28;20028;-81
2022/09/22 03:20:23;;;;;;;3.40;2.38;;;6.00;69.10;;;;;;4193312;28;20032;-82
2022/09/22 03:22:24;;;;;;;4.63;2.97;;;6.00;69.10;;;;;;4208844;28;20032;-82
2022/09/22 03:24:24;;;;;;;5.10;2.25;;;6.00;69.20;;;;;;4191416;28;20036;-81
2022/09/22 03:26:25;;;;;;;3.45;2.55;;;6.00;69.20;;;;;;4208496;28;20020;-82
2022/09/22 03:28:25;;;;;;;4.10;2.45;;;5.90;69.10;;;;;;4192700;28;20886;-81
2022/09/22 03:30:26;;;;;;;4.80;2.72;;;5.90;69.10;;;;;;4167997;28;20033;-81
2022/09/22 03:32:27;;;;;;;2.92;2.40;;;5.90;69.20;;;;;;4190893;28;20833;-82
2022/09/22 03:34:27;;;;;;;2.95;2.38;;;6.00;69.20;;;;;;4192153;28;20063;-82
2022/09/22 03:36:28;;;;;;;3.45;2.42;;;6.00;69.20;;;;;;4189823;28;20020;-82
2022/09/22 03:38:29;;;;;;;4.57;2.70;;;5.90;69.10;;;;;;4193060;28;20021;-82
2022/09/22 03:40:30;;;;;;;4.78;2.70;;;5.90;69.20;;;;;;4192742;28;20562;-81
2022/09/22 03:42:31;;;;;;;3.13;2.28;;;5.80;69.10;;;;;;4193693;28;20039;-81
2022/09/22 03:44:32;;;;;;;4.00;2.33;;;5.80;69.20;;;;;;4192962;28;20044;-81
2022/09/22 03:46:33;;;;;;;3.05;2.50;;;5.80;69.20;;;;;;4191998;28;20535;-81
2022/09/22 03:48:34;;;;;;;5.57;2.22;;;5.80;69.20;;;;;;4192092;28;20020;-82
2022/09/22 03:50:34;;;;;;;3.85;2.47;;;5.80;69.10;;;;;;4192896;28;20443;-81
2022/09/22 03:52:35;;;;;;;6.35;2.53;;;5.80;69.10;;;;;;4193492;28;20089;-81
2022/09/22 03:54:36;;;;;;;3.50;2.55;;;5.70;69.00;;;;;;4207470;28;20490;-81
2022/09/22 03:56:37;;;;;;;5.53;2.30;;;5.80;69.10;;;;;;4191425;28;20743;-81
2022/09/22 03:58:39;;;;;;;4.68;2.70;;;5.70;69.00;;;;;;4186263;28;20028;-81
2022/09/22 04:00:40;;;;;;;4.75;2.33;;;5.70;69.10;;;;;;4190173;28;20033;-82
2022/09/22 04:02:41;;;;;;;4.05;2.80;;;5.70;69.10;;;;;;4192581;28;20498;-81
2022/09/22 04:04:42;;;;;;;7.43;2.90;;;5.70;69.20;;;;;;4192586;28;20099;-82
2022/09/22 04:06:43;;;;;;;4.65;2.47;;;5.70;69.20;;;;;;4191633;28;20121;-82
2022/09/22 04:08:44;;;;;;;4.88;3.00;;;5.60;69.20;;;;;;4189701;28;20763;-82
2022/09/22 04:10:45;;;;;;;4.18;2.40;;;5.60;69.20;;;;;;4193351;28;20028;-82
2022/09/22 04:13:06;;;;;;;6.90;2.58;;;5.60;69.10;;;;;;4190932;28;20033;-82
2022/09/22 04:15:26;;;;;;;4.55;2.60;;;5.60;69.20;;;;;;4184092;28;20040;-82
2022/09/22 04:17:47;;;;;;;3.35;2.50;;;5.60;69.20;;;;;;4186399;28;20040;-82
2022/09/22 04:20:10;;;;;;;4.57;2.35;;;5.60;69.20;;;;;;4191165;28;20090;-82
2022/09/22 04:22:31;;;;;;;4.70;2.40;;;5.60;69.20;;;;;;4188519;28;20024;-82
2022/09/22 04:24:52;;;;;;;6.35;2.58;;;5.50;69.20;;;;;;4187468;28;20037;-82
2022/09/22 04:27:13;;;;;;;3.47;2.60;;;5.50;69.20;;;;;;4188892;28;20105;-83
2022/09/22 04:29:34;;;;;;;9.05;2.65;;;5.50;69.20;;;;;;4187479;28;20047;-82
2022/09/22 04:31:54;;;;;;;5.07;3.05;;;5.50;69.30;;;;;;4188525;28;20020;-81
2022/09/22 04:34:15;;;;;;;3.25;2.63;;;5.60;69.40;;;;;;4189438;28;20064;-82
2022/09/22 04:36:35;;;;;;;6.30;2.45;;;5.50;69.30;;;;;;4187666;28;20060;-82
2022/09/22 04:38:56;;;;;;;4.32;2.90;;;5.50;69.40;;;;;;4189179;28;20082;-82
2022/09/22 04:41:17;;;;;;;5.93;3.03;;;5.40;69.30;;;;;;4189674;28;20040;-82
2022/09/22 04:43:38;;;;;;;6.85;2.80;;;5.50;69.50;;;;;;4186098;28;20062;-82
2022/09/22 04:45:58;;;;;;;4.22;2.70;;;5.50;69.50;;;;;;4188786;28;20037;-82
2022/09/22 04:48:19;;;;;;;5.18;4.03;;;5.40;69.40;;;;;;4186686;28;20024;-83
2022/09/22 04:50:40;;;;;;;5.28;3.10;;;5.40;69.40;;;;;;4191660;28;20086;-83
2022/09/22 04:53:00;;;;;;;4.85;3.03;;;5.40;70.20;;;;;;4192629;28;20032;-82
2022/09/22 04:55:23;;;;;;;4.88;2.95;;;5.40;69.50;;;;;;4190722;28;20089;-82
2022/09/22 04:57:51;;;;;;;6.63;3.17;;;5.40;69.60;;;;;;4192845;28;20036;-83
2022/09/22 04:59:52;;;;;;;4.85;3.05;;;5.40;69.70;;;;;;4192817;28;20387;-83
2022/09/22 05:01:53;;;;;;;6.40;3.00;;;5.30;69.60;;;;;;4193886;28;20020;-83
2022/09/22 05:03:53;;;;;;;7.95;2.80;;;5.40;69.80;;;;;;4192782;28;20496;-83
2022/09/22 05:05:54;;;;;;;5.88;3.20;;;5.30;69.80;;;;;;4191698;28;20117;-83
2022/09/22 05:07:54;;;;;;;5.20;2.53;;;5.30;69.90;;;;;;4191929;28;20020;-84
2022/09/22 05:09:55;;;;;;;7.15;3.00;;;5.30;70.00;;;;;;4193649;28;20036;-83
2022/09/22 05:11:58;;;;;;;4.85;2.75;;;5.30;70.10;;;;;;4192569;28;20114;-83
2022/09/22 05:13:59;;;;;;;6.05;2.70;;;5.30;70.10;;;;;;4190171;28;20428;-83
2022/09/22 05:15:59;;;;;;;5.10;2.47;;;5.30;70.20;;;;;;4193161;28;20028;-83
2022/09/22 05:18:00;;;;;;;7.00;2.53;;;5.30;70.30;;;;;;4193268;28;20123;-83
2022/09/22 05:20:05;;;;;;;5.40;2.28;;;5.30;70.40;;;;;;4191038;28;20039;-83
2022/09/22 05:22:05;;;;;;;5.20;2.53;;;5.30;70.50;;;;;;4190638;28;20104;-83
2022/09/22 05:24:06;;;;;;;6.22;2.72;;;5.30;70.50;;;;;;4193270;28;20098;-83
2022/09/22 05:26:07;;;;;;;4.45;2.33;;;5.30;70.50;;;;;;4190954;28;20025;-83
2022/09/22 05:28:07;;;;;;;3.53;2.28;;;5.30;70.60;;;;;;4190420;28;20082;-83
2022/09/22 05:30:08;;;;;;;5.80;1.80;;;5.30;70.60;;;;;;4193022;28;20024;-83
2022/09/22 05:32:09;;;;;;;5.60;2.20;;;5.30;70.70;;;;;;4193157;28;20016;-83
2022/09/22 05:34:10;;;;;;;2.88;1.65;;;5.30;70.80;;;;;;4196047;28;20055;-83
2022/09/22 05:36:11;;;;;;;6.70;1.92;;;5.30;70.90;;;;;;4177167;28;20027;-82
2022/09/22 05:38:12;;;;;;;5.70;2.40;;;5.30;71.00;;;;;;4194459;28;20361;-83
2022/09/22 05:40:13;;;;;;;6.70;2.38;;;5.30;71.80;;;;;;4195808;28;20089;-83
2022/09/22 05:42:14;;;;;;;3.47;1.65;;;5.30;71.20;;;;;;4193702;28;20403;-83
2022/09/22 05:44:15;;;;;;;4.72;2.47;;;5.40;71.30;;;;;;4195033;28;20074;-83
2022/09/22 05:46:16;;;;;;;3.25;2.20;;;5.40;71.40;;;;;;4194149;28;20032;-82
2022/09/22 05:48:16;;;;;;;3.45;2.00;;;5.40;71.40;;;;;;4195013;28;20235;-83
2022/09/22 05:50:18;;;;;;;6.35;2.20;;;5.40;71.50;;;;;;4195625;28;20169;-83
2022/09/22 05:52:19;;;;;;;7.68;2.88;;;5.40;71.60;;;;;;4206674;28;20028;-83
2022/09/22 05:54:20;;;;;;;5.93;2.75;;;5.50;71.70;;;;;;4194121;28;20035;-83
2022/09/22 05:56:20;;;;;;;4.35;2.67;;;5.50;71.70;;;;;;4196348;28;20059;-84
2022/09/22 05:58:21;;;;;;;5.28;3.22;;;5.50;71.70;;;;;;4197192;28;20534;-83
2022/09/22 06:00:22;;;;;;;6.47;3.22;;;5.50;71.80;;;;;;4197473;28;20500;-83
2022/09/22 06:02:23;;;;;;;5.35;2.67;;;5.60;71.90;;;;;;4195746;28;20074;-83
2022/09/22 06:04:24;;;;;;;8.32;2.65;;;5.60;72.10;;;;;;4196396;28;20597;-83
2022/09/22 06:06:25;;;;;;;7.53;2.80;;;5.60;72.20;;;;;;4185298;28;20092;-82
2022/09/22 06:08:25;;;;;;;5.82;2.78;;;5.60;72.30;;;;;;4196095;28;20021;-82
2022/09/22 06:10:26;;;;;;;4.43;2.67;;;5.70;72.60;;;;;;4195002;28;20111;-83
2022/09/22 06:12:27;;;;;;;6.05;3.17;;;5.70;72.70;;;;;;4194242;28;20170;-83
2022/09/22 06:14:28;;;;;;;5.25;2.25;;;5.70;73.00;;;;;;4176972;28;20024;-83
2022/09/22 06:16:29;;;;;;;7.35;3.10;;;5.80;73.20;;;;;;4178142;28;20071;-83
2022/09/22 06:18:30;;;;;;;9.70;3.13;;;5.80;73.40;;;;;;4195129;28;20066;-83
2022/09/22 06:20:31;;;;;;;3.03;2.28;;;5.90;73.60;;;;;;4195364;28;20116;-83
2022/09/22 06:22:33;;;;;;;7.00;2.83;;;6.00;73.70;;;;;;4194977;28;20029;-83
2022/09/22 06:24:34;;;;;;;10.32;3.50;;;6.00;73.70;;;;;;4194428;28;20021;-83
2022/09/22 06:26:35;;;;;;;6.47;3.28;;;6.10;73.90;;;;;;4194318;28;20031;-83
2022/09/22 06:28:35;;;;;;;6.63;2.67;;;6.10;74.10;;;;;;4211049;28;20020;-83
2022/09/22 06:30:40;;;;;;;5.32;2.65;;;6.20;74.20;;;;;;4195436;28;20054;-83
2022/09/22 06:32:42;;;;;;;8.18;2.63;;;6.20;74.40;;;;;;4193673;28;20031;-83
2022/09/22 06:34:44;;;;;;;3.77;2.73;;;6.30;74.50;;;;;;4195579;28;20150;-84
2022/09/22 06:36:45;;;;;;;6.22;2.63;;;6.40;74.80;;;;;;4194083;28;20024;-83
2022/09/22 06:38:45;;;;;;;10.57;2.33;;;6.40;75.00;;;;;;4195164;28;20033;-83
2022/09/22 06:41:07;;;;;;;6.28;3.22;;;6.50;75.10;;;;;;4193696;28;20399;-83
2022/09/22 06:43:27;;;;;;;9.15;2.63;;;6.60;75.20;;;;;;4193969;28;20043;-83
2022/09/22 06:45:51;;;;;;;6.15;2.30;;;6.70;75.50;;;;;;4195808;28;20033;-83
2022/09/22 06:48:12;;;;;;;8.77;2.85;;;6.80;75.80;;;;;;4195124;28;20017;-83
2022/09/22 06:50:32;;;;;;;7.50;3.05;;;6.90;76.10;;;;;;4186567;28;20587;-83
2022/09/22 06:52:58;;;;;;;12.75;3.20;;;7.00;76.30;;;;;;4192104;28;20028;-83
2022/09/22 06:55:19;;;;;;;4.85;3.00;;;7.10;76.40;;;;;;4192214;28;20488;-82
2022/09/22 06:57:40;;;;;;;4.93;2.55;;;7.20;76.80;;;;;;4194171;28;20575;-83
2022/09/22 07:00:02;;;;;;;10.18;3.10;;;7.30;76.90;;;;;;4207152;28;20024;-83
2022/09/22 07:02:26;;;;;;;9.98;3.00;;;7.40;77.20;;;;;;4194637;28;20555;-83
2022/09/22 07:04:27;;;;;;;8.02;2.97;;;7.50;77.50;;;;;;4193442;28;20031;-83
2022/09/22 07:06:28;;;;;;;12.35;3.58;;;7.60;77.80;;;;;;4193496;28;20020;-83
2022/09/22 07:08:31;;;;;;;7.70;3.00;;;7.70;78.00;;;;;;4187440;28;20027;-83
2022/09/22 07:10:36;;;;;;;8.85;3.28;;;7.90;78.40;;;;;;4193857;28;20112;-83
2022/09/22 07:12:37;;;;;;;5.75;2.88;;;7.90;78.50;;;;;;4193389;28;20114;-83
2022/09/22 07:14:37;;;;;;;7.18;2.38;;;8.10;78.80;;;;;;4195218;28;20027;-83
2022/09/22 07:16:39;;;;;;;9.02;2.40;;;8.10;79.00;;;;;;4191080;28;20012;-83
2022/09/22 07:18:42;;;;;;;5.38;2.28;;;8.20;79.20;;;;;;4194655;28;20040;-83
2022/09/22 07:20:44;;;;;;;4.53;1.85;;;8.40;79.40;;;;;;4191632;28;20078;-83
2022/09/22 07:22:44;;;;;;;6.18;1.73;;;8.50;79.50;;;;;;4193894;28;20073;-83
2022/09/22 07:24:45;;;;;;;9.13;1.90;;;8.60;79.70;;;;;;4195206;28;20503;-83
2022/09/22 07:26:46;;;;;;;6.53;2.00;;;8.70;79.80;;;;;;4193259;28;20103;-83
2022/09/22 07:28:50;;;;;;;6.07;1.40;;;8.80;80.80;;;;;;4196874;28;20074;-84
2022/09/22 07:30:51;;;;;;;6.05;1.77;;;9.00;80.20;;;;;;4196241;28;20125;-83
2022/09/22 07:32:53;;;;;;;3.95;1.55;;;9.10;80.20;;;;;;4192036;28;20119;-83
2022/09/22 07:34:55;;;;;;;7.88;1.45;;;9.20;80.30;;;;;;4190485;28;20021;-84
2022/09/22 07:36:58;;;;;;;5.65;1.20;;;9.30;80.40;;;;;;4193717;28;20040;-83
2022/09/22 07:39:06;;;;;;;5.47;1.02;;;9.40;80.50;;;;;;4194318;28;20094;-82
2022/09/22 07:41:10;;;;;;;6.70;1.17;;;9.60;80.70;;;;;;4191636;28;20056;-84
2022/09/22 07:43:11;;;;;;;3.08;0.68;;;9.70;80.60;;;;;;4188994;28;20103;-83
2022/09/22 07:45:12;;;;;;;5.97;1.02;;;9.80;80.50;;;;;;4192226;28;20032;-83
2022/09/22 07:47:12;;;;;;;3.78;0.80;;;9.90;80.50;;;;;;4191468;28;20027;-83
2022/09/22 07:49:14;;;;;;;4.07;1.20;;;9.90;80.40;;;;;;4191661;28;20143;-84
2022/09/22 07:51:18;;;;;;;4.95;1.48;;;10.20;80.50;;;;;;4193212;28;20024;-83
2022/09/22 07:53:19;;;;;;;2.88;1.10;;;10.20;80.20;;;;;;4192367;28;20412;-84
2022/09/22 07:55:23;;;;;;;3.60;0.90;;;10.30;80.10;;;;;;4187646;28;20131;-84
2022/09/22 07:57:24;;;;;;;7.95;0.82;;;10.40;80.00;;;;;;4192644;28;20032;-83
2022/09/22 07:59:25;;;;;;;7.80;1.13;;;10.50;80.00;;;;;;4194151;28;20103;-84
2022/09/22 08:01:26;;;;;;;10.93;1.45;;;10.60;79.80;;;;;;4191135;28;20032;-84
2022/09/22 08:03:26;;;;;;;3.92;0.77;;;10.70;79.40;;;;;;4190742;28;20062;-84
2022/09/22 08:05:27;;;;;;;4.90;0.77;;;10.80;79.10;;;;;;4193484;28;20067;-84
2022/09/22 08:07:31;;;;;;;3.72;0.85;;;10.90;78.80;;;;;;4192422;28;20108;-84
2022/09/22 08:09:32;;;;;;;3.65;0.60;;;10.90;78.60;;;;;;4193532;28;20055;-84
2022/09/22 08:11:33;;;;;;;7.43;0.95;;;11.00;78.30;;;;;;4190210;28;20082;-84
2022/09/22 08:13:34;;;;;;;6.38;0.88;;;11.20;78.20;;;;;;4193383;28;20033;-83
2022/09/22 08:15:35;;;;;;;2.70;0.85;;;11.30;78.00;;;;;;4193102;28;20029;-84
2022/09/22 08:17:38;;;;;;;4.10;1.00;;;11.30;77.60;;;;;;4190213;28;20028;-83
2022/09/22 08:19:40;;;;;;;;;;;11.40;77.10;;;;;;4192234;28;20021;-83
2022/09/22 08:21:43;;;;;;;4.75;0.90;;;11.50;76.70;;;;;;4190145;28;20002;-84
2022/09/22 08:23:45;;;;;;;7.30;1.00;;;11.60;76.50;;;;;;4189624;28;20087;-84
2022/09/22 08:25:45;;;;;;;4.57;1.20;;;11.60;76.10;;;;;;4191097;28;20032;-83
2022/09/22 08:27:46;;;;;;;6.18;1.10;;;11.70;75.70;;;;;;4187489;28;20024;-84
2022/09/22 08:29:47;;;;;;;4.50;0.98;;;11.80;75.20;;;;;;4187616;28;20067;-84
2022/09/22 08:31:48;;;;;;;8.38;1.10;;;12.00;74.90;;;;;;4191112;28;20040;-84
2022/09/22 08:33:51;;;;;;;9.73;1.02;;;12.00;74.50;;;;;;4192114;28;20027;-84
2022/09/22 08:36:02;;;;;;;3.28;0.93;;;12.10;74.00;;;;;;4190225;28;20031;-84
2022/09/22 08:38:03;;;;;;;6.03;1.00;;;12.20;73.50;;;;;;4191528;28;20032;-84
2022/09/22 08:40:05;;;;;;;5.32;0.90;;;12.20;73.30;;;;;;4191852;28;20029;-84
2022/09/22 08:42:17;;;;;;;4.15;0.70;;;12.40;72.90;;;;;;4192631;28;20031;-84
2022/09/22 08:44:22;;;;;;;7.47;0.90;;;12.40;72.20;;;;;;4207425;28;20036;-84
2022/09/22 08:46:27;;;;;;;3.22;0.88;;;12.60;72.10;;;;;;4191394;28;20033;-83
2022/09/22 08:53:15;;;;;;;6.97;1.17;;;12.90;70.40;;;;;;4191312;28;20025;-84
2022/09/22 08:55:21;;;;;;;5.70;0.95;;;13.00;69.40;;;;;;4193277;28;20055;-84
2022/09/22 08:57:58;;;;;;;9.88;1.30;;;13.10;69.10;;;;;;4171358;28;20037;-85
2022/09/22 09:00:09;;;;;;;6.85;0.88;;;13.10;67.20;;;;;;4138581;28;20097;-84
2022/09/22 09:02:12;;;;;;;3.78;1.02;;;13.30;68.50;;;;;;4183038;28;20036;-84
2022/09/22 09:04:50;;;;;;;6.25;1.25;;;13.40;68.30;;;;;;4192686;28;20032;-84
2022/09/22 09:07:36;;;;;;;4.53;1.23;;;13.40;67.50;;;;;;4191718;28;20106;-84
2022/09/22 09:09:50;;;;;;;4.97;1.35;;;13.60;66.80;;;;;;4178584;28;20120;-84
2022/09/22 09:12:12;;;;;;;5.95;1.20;;;13.70;67.10;;;;;;4192308;28;20033;-84
2022/09/22 09:14:23;;;;;;;4.35;1.17;;;13.80;66.90;;;;;;4194067;28;20088;-84
2022/09/22 09:16:44;;;;;;;3.53;1.02;;;13.90;66.10;;;;;;4192813;28;20066;-84
2022/09/22 09:18:54;;;;;;;5.78;1.23;;;14.00;64.90;;;;;;4194522;28;20070;-84
2022/09/22 09:20:55;;;;;;;8.52;1.33;;;14.10;64.90;;;;;;4193036;28;20025;-84
2022/09/22 09:22:58;;;;;;;4.43;0.90;;;14.20;65.30;;;;;;4206922;28;20029;-85
2022/09/22 09:25:01;;;;;;;;;;;14.20;65.10;;;;;;4194492;28;20117;-84
2022/09/22 09:27:23;;;;;;;4.95;1.05;;;14.30;64.30;;;;;;4195135;28;19908;-84
2022/09/22 09:29:28;;;;;;;6.68;1.00;;;14.40;64.00;;;;;;4193048;28;20043;-84
2022/09/22 09:31:45;;;;;;;6.13;1.40;;;14.50;64.70;;;;;;4185676;28;20021;-84
2022/09/22 09:34:02;;;;;;;5.22;1.10;;;14.60;63.50;;;;;;4193869;28;20029;-84
2022/09/22 09:36:03;;;;;;;8.25;1.08;;;14.70;63.30;;;;;;4192879;28;20107;-84
2022/09/22 09:38:09;;;;;;;5.75;1.02;;;14.70;62.90;;;;;;4210707;28;20039;-84
2022/09/22 09:40:15;;;;;;;6.95;1.00;;;14.80;62.90;;;;;;4192945;28;20050;-84
2022/09/22 09:42:30;;;;;;;5.30;1.20;;;14.90;63.10;;;;;;4186629;28;20056;-84
2022/09/22 09:44:37;;;;;;;5.90;1.30;;;15.00;62.50;;;;;;4191851;28;20032;-84
2022/09/22 09:47:11;;;;;;;8.52;0.98;;;15.00;62.60;;;;;;4185941;28;20388;-84
2022/09/22 09:49:17;;;;;;;5.68;1.40;;;15.10;60.60;;;;;;4189200;28;20190;-84
2022/09/22 09:51:18;;;;;;;7.13;1.38;;;15.20;61.20;;;;;;4187095;28;20032;-84
2022/09/22 09:53:46;;;;;;;10.75;0.90;;;15.20;61.20;;;;;;4193209;28;20113;-84
2022/09/22 09:55:47;;;;;;;4.35;1.38;;;15.30;60.90;;;;;;4192568;28;20033;-84
2022/09/22 09:58:09;;;;;;;8.95;1.40;;;15.40;61.20;;;;;;4194337;28;20028;-85
2022/09/22 10:00:38;;;;;;;6.20;1.10;;;15.40;59.60;;;;;;4195069;28;20024;-84
2022/09/22 10:02:48;;;;;;;9.57;1.45;;;15.50;60.30;;;;;;4194847;28;20029;-84
2022/09/22 10:04:55;;;;;;;7.22;1.38;;;15.60;59.60;;;;;;4194307;28;20024;-84
2022/09/22 10:07:19;;;;;;;4.80;1.00;;;15.60;59.90;;;;;;4193942;28;20088;-84
2022/09/22 10:09:26;;;;;;;3.95;1.00;;;15.70;59.50;;;;;;4183504;28;20021;-85
2022/09/22 10:11:29;;;;;;;6.43;1.20;;;15.80;59.30;;;;;;4209506;28;20047;-85
2022/09/22 10:13:34;;;;;;;4.78;1.02;;;15.90;59.30;;;;;;4195052;28;20043;-85
2022/09/22 10:15:39;;;;;;;3.42;0.93;;;15.90;58.90;;;;;;4183864;28;20439;-84
2022/09/22 10:17:41;;;;;;;5.90;1.23;;;16.00;58.80;;;;;;4192176;28;20051;-85
2022/09/22 10:19:42;;;;;;;6.10;1.20;;;16.10;58.50;;;;;;4173571;28;20492;-85
2022/09/22 10:21:42;;;;;;;6.63;0.98;;;16.10;58.70;;;;;;4208416;28;20031;-85
2022/09/22 10:23:54;;;;;;;6.28;1.60;;;16.10;58.80;;;;;;4192646;28;20048;-85
2022/09/22 10:26:12;;;;;;;4.82;1.15;;;16.20;58.40;;;;;;4191909;28;20021;-85
2022/09/22 10:28:16;;;;;;;8.10;1.25;;;16.30;58.20;;;;;;4193931;28;20028;-85
2022/09/22 10:30:22;;;;;;;6.10;1.08;;;16.30;58.60;;;;;;4191106;28;20033;-85
2022/09/22 10:32:22;;;;;;;7.57;0.95;;;16.40;58.30;;;;;;4193593;28;20670;-84
2022/09/22 10:34:36;;;;;;;5.72;1.02;;;16.60;58.30;;;;;;4193283;28;20025;-85
2022/09/22 10:36:43;;;;;;;3.80;1.02;;;16.60;57.90;;;;;;4191704;28;20110;-85
2022/09/22 10:38:44;;;;;;;6.72;1.15;;;16.60;57.50;;;;;;4190061;28;20043;-85
2022/09/22 10:40:58;;;;;;;5.40;1.02;;;16.70;57.50;;;;;;4193194;28;20056;-85
2022/09/22 10:42:59;;;;;;;5.70;1.35;;;16.80;56.60;;;;;;4194065;28;20063;-85
2022/09/22 10:45:05;;;;;;;9.13;1.00;;;16.90;56.90;;;;;;4194003;28;20016;-85
2022/09/22 10:47:24;;;;;;;3.42;0.85;;;16.90;56.40;;;;;;4185081;28;20032;-85
2022/09/22 10:49:37;;;;;;;2.75;0.70;;;16.90;56.00;;;;;;4192397;28;20028;-85
2022/09/22 10:51:53;;;;;;;4.70;0.90;;;17.00;55.90;;;;;;4191809;28;20064;-84
2022/09/22 10:54:15;;;;;;;7.03;0.90;;;17.00;55.10;;;;;;4184867;28;20033;-85
2022/09/22 10:56:37;;;;;;;3.70;0.85;;;17.10;54.80;;;;;;4193044;28;20033;-85
2022/09/22 10:59:13;;;;;;;6.70;1.10;;;17.10;54.20;;;;;;4192096;28;20184;-85
2022/09/22 11:01:35;;;;;;;6.50;1.20;;;17.10;54.30;;;;;;4191799;28;20031;-85
2022/09/22 11:03:43;;;;;;;5.15;0.98;;;17.10;54.80;;;;;;4191273;28;20044;-85
2022/09/22 11:14:06;;;;;;;6.57;1.02;;;17.30;53.80;;;;;;4188627;28;20161;-85
2022/09/22 11:16:26;;;;;;;6.53;1.10;;;17.30;53.20;;;;;;4190601;28;20039;-85
2022/09/22 11:18:40;;;;;;;2.92;0.82;;;17.40;53.20;;;;;;4192246;28;20060;-86
2022/09/22 11:20:43;;;;;;;3.67;1.00;;;17.40;53.00;;;;;;4185787;28;20036;-86
2022/09/22 11:23:00;;;;;;;3.65;0.80;;;17.40;52.80;;;;;;4197965;28;20027;-85
2022/09/22 11:25:20;;;;;;;2.53;0.80;;;17.50;51.80;;;;;;4192696;28;20037;-85